Time;durP1;ratioP1;P1;durP2;ratioP2;P2;SDS_P1;SDS_P2;PMS_P1;PMS_P2;Temp;Humidity;BMP_temperature;BMP_pressure;BME280_temperature;BME280_humidity;BME280_pressure;Samples;Min_cycle;Max_cycle;Signal;HPM_P1;HPM_P2
2023/08/26 00:00:21;;;;;;;9.10;6.88;;;;;17.30;93803.00;;;;7411327;19;20140;-92
2023/08/26 00:02:56;;;;;;;11.73;6.93;;;;;17.30;93807.00;;;;7409732;19;20153;-93
2023/08/26 00:05:31;;;;;;;10.65;6.75;;;;;17.30;93802.00;;;;7406223;19;20243;-92
2023/08/26 00:08:06;;;;;;;8.73;6.97;;;;;17.30;93793.00;;;;7410686;19;20492;-92
2023/08/26 00:10:40;;;;;;;9.55;7.28;;;;;17.30;93789.00;;;;7410849;19;20164;-93
2023/08/26 00:13:09;;;;;;;9.20;6.85;;;;;17.30;93791.00;;;;7411183;19;20133;-93
2023/08/26 00:15:43;;;;;;;10.13;6.88;;;;;17.40;93794.00;;;;7410770;19;20147;-92
2023/08/26 00:18:18;;;;;;;12.38;7.07;;;;;17.40;93803.00;;;;7410681;19;20139;-94
2023/08/26 00:20:46;;;;;;;9.18;7.13;;;;;17.40;93801.00;;;;7408733;19;20153;-93
2023/08/26 00:23:21;;;;;;;11.80;7.63;;;;;17.40;93789.00;;;;7408811;19;20647;-93
2023/08/26 00:25:55;;;;;;;16.88;7.10;;;;;17.40;93791.00;;;;7405703;19;20173;-90
2023/08/26 00:28:23;;;;;;;10.90;6.65;;;;;17.30;93796.00;;;;7405765;19;20692;-90
2023/08/26 00:30:59;;;;;;;11.50;6.75;;;;;17.40;93788.00;;;;7405390;19;20611;-90
2023/08/26 00:33:33;;;;;;;11.50;6.72;;;;;17.40;93800.00;;;;7406179;19;20216;-89
2023/08/26 00:36:01;;;;;;;7.70;6.75;;;;;17.40;93803.00;;;;7405029;19;20495;-88
2023/08/26 00:38:35;;;;;;;7.05;6.30;;;;;17.40;93805.00;;;;7404680;19;20168;-88
2023/08/26 00:41:03;;;;;;;11.18;6.00;;;;;17.40;93810.00;;;;7404501;19;20129;-88
2023/08/26 00:43:37;;;;;;;8.07;6.30;;;;;17.30;93812.00;;;;7405334;19;20157;-88
2023/08/26 00:46:05;;;;;;;8.00;6.13;;;;;17.40;93826.00;;;;7404166;19;20137;-90
2023/08/26 00:48:39;;;;;;;10.68;5.63;;;;;17.40;93823.00;;;;7404304;19;20140;-89
2023/08/26 00:51:07;;;;;;;7.70;5.10;;;;;17.50;93812.00;;;;7402869;19;20145;-88
2023/08/26 00:53:41;;;;;;;7.28;5.45;;;;;17.30;93794.00;;;;7403832;19;20144;-89
2023/08/26 00:56:16;;;;;;;8.18;5.28;;;;;17.30;93815.00;;;;7403808;19;20460;-90
2023/08/26 00:58:44;;;;;;;7.65;5.07;;;;;17.30;93811.00;;;;7400309;19;20653;-90
2023/08/26 01:01:12;;;;;;;10.48;5.28;;;;;17.30;93814.00;;;;7404558;19;20172;-91
2023/08/26 01:03:48;;;;;;;9.68;5.40;;;;;17.30;93819.00;;;;7404037;19;20156;-90
2023/08/26 01:06:29;;;;;;;11.77;5.82;;;;;17.30;93827.00;;;;7404390;19;20168;-91
2023/08/26 01:09:04;;;;;;;9.95;6.07;;;;;17.20;93813.00;;;;7406742;19;20149;-93
2023/08/26 01:12:00;;;;;;;8.40;5.68;;;;;17.30;93821.00;;;;7404880;19;20617;-91
2023/08/26 01:14:44;;;;;;;11.05;6.22;;;;;17.30;93825.00;;;;7405445;19;20146;-91
2023/08/26 01:17:19;;;;;;;10.80;6.35;;;;;17.40;93813.00;;;;7404882;19;20137;-90
2023/08/26 01:19:56;;;;;;;10.40;6.65;;;;;17.20;93820.00;;;;7403661;19;20156;-92
2023/08/26 01:22:28;;;;;;;11.52;6.95;;;;;17.10;93821.00;;;;7406442;19;20595;-91
2023/08/26 01:25:02;;;;;;;10.75;7.68;;;;;17.10;93812.00;;;;7405157;19;20148;-92
2023/08/26 01:27:37;;;;;;;13.80;7.88;;;;;17.10;93826.00;;;;7404931;19;20140;-91
2023/08/26 01:30:08;;;;;;;12.57;7.38;;;;;17.10;93819.00;;;;7405888;19;20141;-90
2023/08/26 01:33:09;;;;;;;14.43;7.72;;;;;17.10;93819.00;;;;7404529;19;20144;-89
2023/08/26 01:35:41;;;;;;;13.63;7.93;;;;;17.10;93826.00;;;;7403993;19;20165;-92
2023/08/26 01:38:22;;;;;;;11.18;8.00;;;;;17.00;93822.00;;;;7405509;19;20145;-92
2023/08/26 01:40:56;;;;;;;13.82;8.73;;;;;17.00;93834.00;;;;7403142;19;20270;-91
2023/08/26 01:43:32;;;;;;;17.42;8.38;;;;;17.00;93839.00;;;;7405958;19;20149;-92
2023/08/26 01:46:06;;;;;;;13.85;8.43;;;;;16.90;93820.00;;;;7408917;19;20132;-93
2023/08/26 01:48:41;;;;;;;12.77;8.60;;;;;17.00;93832.00;;;;7408074;19;20136;-91
2023/08/26 01:51:11;;;;;;;15.10;8.57;;;;;16.90;93840.00;;;;7406665;19;20608;-91
2023/08/26 01:53:39;;;;;;;14.00;8.80;;;;;16.90;93845.00;;;;7405929;19;20216;-92
2023/08/26 01:56:13;;;;;;;14.05;8.43;;;;;16.80;93851.00;;;;7405829;19;20144;-92
2023/08/26 01:58:47;;;;;;;17.55;8.75;;;;;16.90;93864.00;;;;7406578;19;20135;-91
2023/08/26 02:01:21;;;;;;;14.50;8.80;;;;;16.90;93855.00;;;;7403908;19;20168;-90
2023/08/26 02:04:01;;;;;;;19.67;9.30;;;;;16.90;93848.00;;;;7403794;19;20258;-91
2023/08/26 02:06:42;;;;;;;13.07;8.60;;;;;16.80;93843.00;;;;7407765;19;20153;-92
2023/08/26 02:09:10;;;;;;;13.90;8.57;;;;;16.80;93852.00;;;;7405149;19;20155;-92
2023/08/26 02:11:45;;;;;;;13.95;8.57;;;;;16.80;93858.00;;;;7405326;19;20509;-92
2023/08/26 02:14:13;;;;;;;14.65;8.43;;;;;16.60;93864.00;;;;7405834;19;20145;-92
2023/08/26 02:16:47;;;;;;;14.65;8.30;;;;;16.80;93862.00;;;;7405484;19;20152;-92
2023/08/26 02:19:22;;;;;;;13.40;7.88;;;;;16.70;93856.00;;;;7406287;19;20151;-92
2023/08/26 02:21:56;;;;;;;15.02;7.95;;;;;16.60;93862.00;;;;7407903;19;20540;-92
2023/08/26 02:24:32;;;;;;;10.43;7.57;;;;;16.60;93861.00;;;;7404711;19;20152;-92
2023/08/26 02:27:06;;;;;;;18.35;7.18;;;;;16.50;93863.00;;;;7407288;19;20476;-92
2023/08/26 02:29:34;;;;;;;12.23;7.78;;;;;16.40;93866.00;;;;7404866;19;20157;-92
2023/08/26 02:32:08;;;;;;;12.50;7.72;;;;;16.40;93864.00;;;;7405707;19;20141;-91
2023/08/26 02:34:37;;;;;;;11.10;7.22;;;;;16.30;93863.00;;;;7408132;19;20153;-92
2023/08/26 02:37:11;;;;;;;14.85;6.90;;;;;16.40;93870.00;;;;7406165;19;20136;-92
2023/08/26 02:39:41;;;;;;;13.00;6.60;;;;;16.30;93865.00;;;;7406220;19;20150;-92
2023/08/26 02:42:15;;;;;;;13.88;6.40;;;;;16.20;93875.00;;;;7408701;19;20136;-93
2023/08/26 02:44:49;;;;;;;12.63;6.55;;;;;16.20;93850.00;;;;7404491;19;20157;-90
2023/08/26 02:47:23;;;;;;;8.43;6.35;;;;;16.30;93858.00;;;;7403709;19;20133;-91
2023/08/26 02:49:51;;;;;;;14.15;6.95;;;;;16.30;93863.00;;;;7405103;19;20162;-93
2023/08/26 02:52:29;;;;;;;12.38;6.90;;;;;16.40;93867.00;;;;7406684;19;20481;-91
2023/08/26 02:54:58;;;;;;;8.48;6.47;;;;;16.30;93856.00;;;;7402742;19;20161;-91
2023/08/26 02:57:32;;;;;;;12.15;6.47;;;;;16.20;93858.00;;;;7405713;19;20140;-91
2023/08/26 03:00:00;;;;;;;11.00;7.07;;;;;16.00;93847.00;;;;7403463;19;20164;-90
2023/08/26 03:02:28;;;;;;;17.00;7.55;;;;;16.10;93845.00;;;;7402569;19;20165;-91
2023/08/26 03:05:09;;;;;;;16.08;7.32;;;;;16.10;93849.00;;;;7404547;19;20176;-92
2023/08/26 03:07:37;;;;;;;12.38;6.85;;;;;16.00;93852.00;;;;7406037;19;20148;-90
2023/08/26 03:10:11;;;;;;;10.55;7.55;;;;;16.10;93844.00;;;;7404651;19;20157;-92
2023/08/26 03:12:39;;;;;;;13.38;6.90;;;;;16.10;93856.00;;;;7404580;19;20177;-92
2023/08/26 03:15:14;;;;;;;11.43;7.53;;;;;15.90;93844.00;;;;7405168;19;20132;-90
2023/08/26 03:17:41;;;;;;;12.43;7.80;;;;;16.00;93855.00;;;;7404385;19;20155;-91
2023/08/26 03:20:16;;;;;;;13.98;7.68;;;;;16.00;93854.00;;;;7402662;19;20157;-91
2023/08/26 03:22:51;;;;;;;14.35;7.80;;;;;15.90;93849.00;;;;7402384;19;20176;-91
2023/08/26 03:25:26;;;;;;;14.77;7.72;;;;;15.80;93854.00;;;;7401571;19;20558;-87
2023/08/26 03:27:54;;;;;;;10.43;7.50;;;;;15.80;93851.00;;;;7400022;19;20235;-89
2023/08/26 03:30:29;;;;;;;14.35;7.80;;;;;15.60;93854.00;;;;7400891;19;20143;-88
2023/08/26 03:32:57;;;;;;;16.33;8.00;;;;;15.60;93857.00;;;;7399319;19;21033;-88
2023/08/26 03:35:31;;;;;;;13.27;8.15;;;;;15.60;93854.00;;;;7402492;19;20136;-89
2023/08/26 03:38:06;;;;;;;13.15;7.43;;;;;15.50;93858.00;;;;7402266;19;20132;-89
2023/08/26 03:40:47;;;;;;;15.23;8.30;;;;;15.50;93848.00;;;;7398635;19;20142;-89
2023/08/26 03:43:15;;;;;;;13.43;7.45;;;;;15.50;93850.00;;;;7400517;19;20603;-89
2023/08/26 03:45:49;;;;;;;18.50;7.82;;;;;15.50;93854.00;;;;7400082;19;20125;-87
2023/08/26 03:48:17;;;;;;;18.17;8.95;;;;;15.40;93852.00;;;;7399645;19;20140;-87
2023/08/26 03:50:52;;;;;;;13.27;7.57;;;;;15.40;93850.00;;;;7400496;19;20178;-88
2023/08/26 03:53:20;;;;;;;14.43;8.30;;;;;15.40;93867.00;;;;7400153;19;20164;-87
2023/08/26 03:55:54;;;;;;;14.75;7.75;;;;;15.30;93869.00;;;;7398273;19;20158;-88
2023/08/26 03:58:22;;;;;;;15.38;8.80;;;;;15.50;93886.00;;;;7400502;19;20133;-88
2023/08/26 04:00:50;;;;;;;15.65;8.13;;;;;15.40;93889.00;;;;7397998;19;20212;-89
2023/08/26 04:03:27;;;;;;;10.35;7.78;;;;;15.30;93878.00;;;;7397828;19;20492;-89
2023/08/26 04:06:10;;;;;;;14.50;9.25;;;;;15.40;93883.00;;;;7397963;19;20168;-89
2023/08/26 04:08:46;;;;;;;17.23;8.50;;;;;15.20;93882.00;;;;7408572;19;20133;-87
2023/08/26 04:11:22;;;;;;;12.77;8.88;;;;;15.30;93889.00;;;;7408409;19;20159;-88
2023/08/26 04:13:57;;;;;;;11.85;7.03;;;;;15.20;93876.00;;;;7406156;19;20163;-87
2023/08/26 04:16:32;;;;;;;15.55;8.77;;;;;15.20;93869.00;;;;7402540;19;20160;-87
2023/08/26 04:19:07;;;;;;;14.25;8.43;;;;;15.20;93873.00;;;;7404732;19;20175;-88
2023/08/26 04:21:35;;;;;;;15.18;9.27;;;;;15.30;93870.00;;;;7407033;19;20171;-87
2023/08/26 04:24:09;;;;;;;19.10;9.07;;;;;15.40;93874.00;;;;7407598;19;20144;-89
2023/08/26 04:26:37;;;;;;;15.63;10.68;;;;;15.40;93887.00;;;;7405479;19;20144;-88
2023/08/26 04:29:06;;;;;;;16.70;10.70;;;;;15.50;93882.00;;;;7407023;19;20464;-89
2023/08/26 04:31:40;;;;;;;14.18;10.88;;;;;15.50;93888.00;;;;7404947;19;20152;-88
2023/08/26 04:34:08;;;;;;;18.13;11.50;;;;;15.50;93881.00;;;;7403817;19;20479;-89
2023/08/26 04:36:35;;;;;;;20.17;11.35;;;;;15.60;93890.00;;;;7408921;19;20151;-91
2023/08/26 04:39:12;;;;;;;22.05;12.05;;;;;15.80;93882.00;;;;7411823;19;20151;-91
2023/08/26 04:41:46;;;;;;;18.98;12.00;;;;;15.80;93894.00;;;;7408394;19;20144;-91
2023/08/26 04:44:24;;;;;;;19.30;12.15;;;;;15.70;93898.00;;;;7411802;19;20144;-91
2023/08/26 04:46:58;;;;;;;16.73;11.77;;;;;15.70;93891.00;;;;7398283;19;20148;-89
2023/08/26 04:49:33;;;;;;;18.25;11.52;;;;;15.50;93892.00;;;;7398553;19;20140;-91
2023/08/26 04:52:07;;;;;;;18.92;11.52;;;;;15.50;93896.00;;;;7401749;19;20320;-91
2023/08/26 04:54:35;;;;;;;15.27;11.13;;;;;15.50;93891.00;;;;7400499;19;20156;-92
2023/08/26 04:57:04;;;;;;;16.10;10.80;;;;;15.50;93902.00;;;;7399445;19;20161;-91
2023/08/26 04:59:38;;;;;;;20.25;11.45;;;;;15.50;93911.00;;;;7399980;19;20148;-92
2023/08/26 05:02:21;;;;;;;14.48;9.43;;;;;15.40;93910.00;;;;7399809;19;20184;-92
2023/08/26 05:05:02;;;;;;;13.48;10.35;;;;;15.40;93920.00;;;;7398920;19;20168;-92
2023/08/26 05:07:32;;;;;;;21.33;10.38;;;;;15.40;93921.00;;;;7398963;19;20156;-91
2023/08/26 05:10:07;;;;;;;17.33;10.35;;;;;15.40;93915.00;;;;7400231;19;20607;-92
2023/08/26 05:12:35;;;;;;;14.95;9.10;;;;;15.30;93922.00;;;;7400250;19;20143;-92
2023/08/26 05:15:04;;;;;;;21.13;9.85;;;;;15.30;93922.00;;;;7397038;19;20148;-92
2023/08/26 05:17:38;;;;;;;18.35;8.75;;;;;15.30;93925.00;;;;7398304;19;20133;-91
2023/08/26 05:20:07;;;;;;;16.40;9.40;;;;;15.30;93915.00;;;;7397777;19;20168;-92
2023/08/26 05:22:42;;;;;;;20.08;10.10;;;;;15.30;93922.00;;;;7401608;19;20144;-92
2023/08/26 05:25:10;;;;;;;17.60;10.07;;;;;15.40;93931.00;;;;7400459;19;20145;-92
2023/08/26 05:27:44;;;;;;;18.30;9.52;;;;;15.30;93933.00;;;;7400249;19;20155;-92
2023/08/26 05:30:12;;;;;;;16.50;9.07;;;;;15.40;93928.00;;;;7399765;19;20145;-92
2023/08/26 05:32:46;;;;;;;16.30;9.70;;;;;15.60;93929.00;;;;7401321;19;20152;-91
2023/08/26 05:35:14;;;;;;;24.33;10.30;;;;;15.70;93924.00;;;;7399112;19;20481;-91
2023/08/26 05:37:48;;;;;;;12.68;8.98;;;;;15.70;93934.00;;;;7401704;19;20145;-92
2023/08/26 05:40:16;;;;;;;17.08;10.20;;;;;15.70;93926.00;;;;7399920;19;20148;-92
2023/08/26 05:42:50;;;;;;;12.48;9.15;;;;;15.70;93922.00;;;;7400391;19;20163;-92
2023/08/26 05:45:18;;;;;;;13.38;9.05;;;;;15.80;93927.00;;;;7397414;19;20217;-91
2023/08/26 05:47:53;;;;;;;10.80;8.18;;;;;15.90;93923.00;;;;7397497;19;20159;-91
2023/08/26 05:50:22;;;;;;;16.75;10.05;;;;;16.20;93935.00;;;;7400460;19;20143;-92
2023/08/26 05:52:58;;;;;;;17.15;10.05;;;;;16.30;93935.00;;;;7398796;19;20615;-92
2023/08/26 05:55:26;;;;;;;14.23;10.07;;;;;16.30;93933.00;;;;7396612;19;20145;-92
2023/08/26 05:58:00;;;;;;;16.73;9.95;;;;;16.40;93903.00;;;;7400961;19;20153;-92
2023/08/26 06:00:29;;;;;;;11.60;9.52;;;;;16.30;93936.00;;;;7398511;19;20141;-91
2023/08/26 06:03:04;;;;;;;13.23;9.15;;;;;16.20;93939.00;;;;7398776;19;20155;-88
2023/08/26 06:05:38;;;;;;;15.35;8.98;;;;;16.30;93943.00;;;;7396689;19;20184;-91
2023/08/26 06:08:20;;;;;;;14.30;9.27;;;;;16.50;93936.00;;;;7396433;19;20518;-92
2023/08/26 06:10:52;;;;;;;17.02;8.63;;;;;16.70;93935.00;;;;7398294;19;20215;-91
2023/08/26 06:13:26;;;;;;;11.85;7.28;;;;;16.60;93939.00;;;;7398911;19;20519;-91
2023/08/26 06:16:01;;;;;;;14.18;8.32;;;;;16.70;93935.00;;;;7402666;19;20152;-90
2023/08/26 06:18:36;;;;;;;13.95;8.00;;;;;16.60;93931.00;;;;7401315;19;20152;-90
2023/08/26 06:21:04;;;;;;;10.13;7.47;;;;;16.70;93937.00;;;;7398463;19;20917;-91
2023/08/26 06:23:38;;;;;;;13.48;6.82;;;;;16.80;93940.00;;;;7400181;19;20144;-90
2023/08/26 06:26:13;;;;;;;9.07;6.13;;;;;16.80;93954.00;;;;7400872;19;20175;-91
2023/08/26 06:28:40;;;;;;;10.90;7.00;;;;;16.80;93950.00;;;;7402763;19;20141;-90
2023/08/26 06:31:15;;;;;;;12.88;6.97;;;;;16.70;93949.00;;;;7400849;19;20161;-90
2023/08/26 06:33:44;;;;;;;12.35;5.90;;;;;16.90;93943.00;;;;7401365;19;20147;-90
2023/08/26 06:36:18;;;;;;;13.18;6.63;;;;;17.10;93945.00;;;;7400096;19;20128;-90
2023/08/26 06:38:46;;;;;;;10.50;6.97;;;;;17.20;93947.00;;;;7398583;19;20161;-89
2023/08/26 06:41:21;;;;;;;8.90;5.35;;;;;17.30;93936.00;;;;7395839;19;20151;-90
2023/08/26 06:43:57;;;;;;;6.93;5.65;;;;;17.30;93931.00;;;;7402454;19;20145;-90
2023/08/26 06:46:24;;;;;;;11.55;5.95;;;;;17.40;93932.00;;;;7398872;19;20274;-90
2023/08/26 06:48:59;;;;;;;6.20;5.45;;;;;17.50;93927.00;;;;7392331;19;20152;-88
2023/08/26 06:51:27;;;;;;;11.10;5.68;;;;;17.40;93925.00;;;;7397510;19;20136;-88
2023/08/26 06:54:01;;;;;;;11.68;5.72;;;;;17.50;93902.00;;;;7398087;19;20157;-89
2023/08/26 06:56:35;;;;;;;10.63;5.53;;;;;17.80;93921.00;;;;7401478;19;20521;-92
2023/08/26 06:59:11;;;;;;;9.00;5.55;;;;;18.50;93921.00;;;;7401525;19;20140;-94
2023/08/26 07:01:45;;;;;;;9.98;4.95;;;;;18.60;93933.00;;;;7400903;19;20154;-92
2023/08/26 07:04:25;;;;;;;6.65;4.60;;;;;18.40;93943.00;;;;7397896;19;20620;-92
2023/08/26 07:06:59;;;;;;;5.82;4.10;;;;;18.10;93947.00;;;;7400512;19;20200;-91
2023/08/26 07:09:36;;;;;;;13.10;5.30;;;;;17.70;93958.00;;;;7400036;19;20607;-95
2023/08/26 07:12:10;;;;;;;10.63;6.03;;;;;17.20;93955.00;;;;7402644;19;20151;-92
2023/08/26 07:14:44;;;;;;;9.50;5.55;;;;;17.20;93947.00;;;;7399623;19;20176;-90
2023/08/26 07:17:16;;;;;;;8.75;5.70;;;;;17.20;93957.00;;;;7398054;19;20183;-89
2023/08/26 07:19:52;;;;;;;6.20;4.47;;;;;17.30;93941.00;;;;7398462;19;20140;-90
2023/08/26 07:22:26;;;;;;;10.77;5.65;;;;;17.40;93929.00;;;;7397280;19;20133;-90
2023/08/26 07:25:01;;;;;;;10.25;5.25;;;;;17.90;93915.00;;;;7397545;19;20144;-90
2023/08/26 07:27:36;;;;;;;12.52;5.90;;;;;18.00;93911.00;;;;7397307;19;20603;-91
2023/08/26 07:30:04;;;;;;;12.30;5.18;;;;;17.60;93911.00;;;;7397760;19;20158;-91
2023/08/26 07:32:38;;;;;;;13.63;5.50;;;;;17.50;93913.00;;;;7401218;19;20165;-90
2023/08/26 07:35:12;;;;;;;10.30;5.40;;;;;17.70;93926.00;;;;7399793;19;20148;-89
2023/08/26 07:37:52;;;;;;;11.43;5.13;;;;;17.70;93921.00;;;;7400282;19;20152;-90
2023/08/26 07:40:20;;;;;;;7.00;4.60;;;;;17.60;93925.00;;;;7397480;19;20207;-90
2023/08/26 07:42:55;;;;;;;9.23;4.25;;;;;17.70;93921.00;;;;7405830;19;20477;-91
2023/08/26 07:45:29;;;;;;;8.00;4.07;;;;;17.60;93922.00;;;;7401936;19;20154;-90
2023/08/26 07:48:03;;;;;;;9.88;3.50;;;;;17.20;93934.00;;;;7402961;19;20143;-90
2023/08/26 07:50:34;;;;;;;6.85;3.88;;;;;17.50;93927.00;;;;7404095;19;20137;-88
2023/08/26 07:53:09;;;;;;;8.70;3.35;;;;;18.10;93921.00;;;;7400424;19;20151;-90
2023/08/26 07:55:37;;;;;;;9.55;3.58;;;;;18.10;93928.00;;;;7401668;19;20777;-88
2023/08/26 07:58:11;;;;;;;5.68;3.13;;;;;17.80;93926.00;;;;7400277;19;20151;-90
2023/08/26 08:00:39;;;;;;;10.90;3.15;;;;;17.10;93924.00;;;;7398041;19;20153;-90
2023/08/26 08:03:14;;;;;;;7.28;3.15;;;;;16.70;93915.00;;;;7401279;19;20156;-89
2023/08/26 08:05:48;;;;;;;6.80;2.83;;;;;16.70;93925.00;;;;7399052;19;20232;-86
2023/08/26 08:08:24;;;;;;;6.28;2.92;;;;;16.70;93915.00;;;;7395922;19;20220;-87
2023/08/26 08:10:52;;;;;;;11.57;3.40;;;;;16.70;93916.00;;;;7394586;19;20154;-88
2023/08/26 08:13:26;;;;;;;6.72;3.25;;;;;17.60;93921.00;;;;7397658;19;20599;-87
2023/08/26 08:16:00;;;;;;;6.45;2.90;;;;;17.70;93903.00;;;;7394508;19;20540;-84
2023/08/26 08:18:28;;;;;;;4.32;2.90;;;;;18.40;93898.00;;;;7397415;19;20208;-87
2023/08/26 08:21:04;;;;;;;3.90;2.88;;;;;18.40;93893.00;;;;7397359;19;20128;-86
2023/08/26 08:23:32;;;;;;;7.35;2.97;;;;;19.30;93886.00;;;;7395961;19;20149;-84
2023/08/26 08:26:06;;;;;;;6.07;3.05;;;;;19.20;93886.00;;;;7396728;19;20168;-85
2023/08/26 08:28:40;;;;;;;6.50;2.67;;;;;19.60;93892.00;;;;7399331;19;20609;-85
2023/08/26 08:31:15;;;;;;;5.50;2.67;;;;;19.10;93907.00;;;;7396947;19;20232;-86
2023/08/26 08:33:44;;;;;;;9.27;2.58;;;;;18.50;93912.00;;;;7396622;19;20178;-86
2023/08/26 08:36:18;;;;;;;6.55;3.33;;;;;18.30;93910.00;;;;7395787;19;20164;-85
2023/08/26 08:38:53;;;;;;;5.13;2.63;;;;;17.90;93913.00;;;;7396886;19;20486;-86
2023/08/26 08:41:31;;;;;;;4.88;2.65;;;;;18.10;93908.00;;;;7396175;19;20145;-85
2023/08/26 08:44:03;;;;;;;5.13;2.65;;;;;18.20;93913.00;;;;7394679;19;20591;-86
2023/08/26 08:46:38;;;;;;;5.25;2.70;;;;;18.60;93921.00;;;;7395954;19;20216;-85
2023/08/26 08:49:07;;;;;;;4.13;2.78;;;;;18.60;93908.00;;;;7395336;19;20426;-85
2023/08/26 08:51:41;;;;;;;8.98;2.88;;;;;19.00;93921.00;;;;7393944;19;20147;-86
2023/08/26 08:54:15;;;;;;;7.50;2.50;;;;;19.20;93933.00;;;;7394439;19;20144;-85
2023/08/26 08:56:50;;;;;;;4.00;2.10;;;;;18.90;93937.00;;;;7395763;19;20136;-86
2023/08/26 08:59:29;;;;;;;5.13;2.50;;;;;18.60;93947.00;;;;7394490;19;20659;-86
2023/08/26 09:01:59;;;;;;;2.92;1.92;;;;;18.80;93940.00;;;;7395319;19;20938;-84
2023/08/26 09:04:40;;;;;;;7.45;2.00;;;;;18.80;93935.00;;;;7396397;19;20503;-86
2023/08/26 09:07:15;;;;;;;6.35;2.28;;;;;19.30;93914.00;;;;7395855;19;20149;-86
2023/08/26 09:09:49;;;;;;;5.93;2.50;;;;;19.60;93899.00;;;;7394720;19;20153;-84
2023/08/26 09:12:32;;;;;;;4.60;2.35;;;;;20.10;93891.00;;;;7395383;19;20155;-86
2023/08/26 09:15:06;;;;;;;7.65;2.53;;;;;20.50;93881.00;;;;7395447;19;20496;-87
2023/08/26 09:17:50;;;;;;;10.43;2.30;;;;;20.90;93872.00;;;;7395139;19;20173;-88
2023/08/26 09:20:17;;;;;;;4.20;2.47;;;;;21.20;93879.00;;;;7396732;19;20168;-87
2023/08/26 09:23:03;;;;;;;4.47;2.30;;;;;21.60;93887.00;;;;7398079;19;20626;-89
2023/08/26 09:25:37;;;;;;;4.20;2.00;;;;;21.10;93903.00;;;;7397916;19;20166;-88
2023/08/26 09:28:11;;;;;;;6.07;2.25;;;;;20.60;93905.00;;;;7397955;19;20205;-86
2023/08/26 09:30:39;;;;;;;3.03;1.90;;;;;20.00;93910.00;;;;7397296;19;20152;-87
2023/08/26 09:33:14;;;;;;;6.22;2.30;;;;;19.80;93913.00;;;;7396605;19;20128;-86
2023/08/26 09:35:49;;;;;;;5.65;2.58;;;;;19.60;93919.00;;;;7397226;19;20155;-87
2023/08/26 09:38:31;;;;;;;5.25;2.22;;;;;18.80;93922.00;;;;7396288;19;20149;-87
2023/08/26 09:41:05;;;;;;;2.72;1.92;;;;;18.90;93910.00;;;;7397342;19;20145;-86
2023/08/26 09:43:44;;;;;;;3.95;2.40;;;;;19.00;93906.00;;;;7397212;19;20128;-87
2023/08/26 09:46:20;;;;;;;5.28;2.38;;;;;18.80;93914.00;;;;7397137;19;20148;-87
2023/08/26 09:48:57;;;;;;;2.83;2.08;;;;;19.00;93916.00;;;;7396135;19;20191;-87
2023/08/26 09:51:32;;;;;;;6.22;2.70;;;;;19.20;93907.00;;;;7396352;19;20220;-88
2023/08/26 09:54:07;;;;;;;8.25;2.22;;;;;19.20;93902.00;;;;7393581;19;20626;-87
2023/08/26 09:56:34;;;;;;;7.20;2.70;;;;;19.30;93897.00;;;;7396532;19;20951;-87
2023/08/26 09:59:08;;;;;;;6.55;3.08;;;;;19.50;93891.00;;;;7397207;19;20163;-87
2023/08/26 10:01:43;;;;;;;3.78;2.33;;;;;19.50;93890.00;;;;7395549;19;20618;-86
2023/08/26 10:04:20;;;;;;;5.10;2.58;;;;;19.60;93885.00;;;;7393103;19;20124;-88
2023/08/26 10:07:05;;;;;;;4.25;2.40;;;;;19.90;93887.00;;;;7392091;19;20148;-87
2023/08/26 10:09:57;;;;;;;4.10;2.40;;;;;19.60;93891.00;;;;7394577;19;20148;-88
2023/08/26 10:12:36;;;;;;;7.13;2.55;;;;;19.70;93896.00;;;;7397142;19;20145;-90
2023/08/26 10:15:14;;;;;;;4.95;2.38;;;;;20.20;93884.00;;;;7396200;19;20590;-89
2023/08/26 10:17:52;;;;;;;5.35;2.90;;;;;21.00;93877.00;;;;7395816;19;20148;-88
2023/08/26 10:20:27;;;;;;;6.82;2.92;;;;;21.70;93873.00;;;;7396724;19;20152;-89
2023/08/26 10:23:06;;;;;;;9.85;2.78;;;;;21.90;93898.00;;;;7395005;19;22842;-89
2023/08/26 10:25:34;;;;;;;4.65;2.15;;;;;21.20;93906.00;;;;7394216;19;20158;-86
2023/08/26 10:28:10;;;;;;;4.13;2.50;;;;;20.30;93925.00;;;;7392714;19;20112;-87
2023/08/26 10:30:45;;;;;;;5.78;2.25;;;;;20.00;93914.00;;;;7393715;19;20590;-85
2023/08/26 10:33:20;;;;;;;5.00;2.97;;;;;19.80;93908.00;;;;7393185;19;20220;-87
2023/08/26 10:35:59;;;;;;;7.18;2.58;;;;;19.50;93905.00;;;;7391769;19;20518;-87
2023/08/26 10:38:37;;;;;;;4.20;2.97;;;;;19.60;93900.00;;;;7391609;19;20144;-86
2023/08/26 10:41:12;;;;;;;5.80;3.35;;;;;19.60;93911.00;;;;7393795;19;20204;-86
2023/08/26 10:43:53;;;;;;;6.32;2.90;;;;;19.80;93900.00;;;;7392389;19;20507;-86
2023/08/26 10:46:53;;;;;;;4.63;2.92;;;;;19.90;93891.00;;;;7392311;19;20136;-88
2023/08/26 10:49:27;;;;;;;7.65;3.30;;;;;20.00;93909.00;;;;7393159;19;20151;-86
2023/08/26 10:52:11;;;;;;;6.75;3.13;;;;;19.70;93904.00;;;;7392354;19;20259;-87
2023/08/26 10:54:47;;;;;;;4.05;2.70;;;;;19.60;93906.00;;;;7393747;19;20145;-85
2023/08/26 10:57:22;;;;;;;4.32;2.40;;;;;19.70;93894.00;;;;7392602;19;20166;-84
2023/08/26 10:59:53;;;;;;;6.03;2.60;;;;;19.90;93913.00;;;;7392390;19;20149;-82
2023/08/26 11:02:28;;;;;;;7.45;2.30;;;;;19.90;93906.00;;;;7392265;19;20560;-86
2023/08/26 11:05:09;;;;;;;4.68;2.17;;;;;19.60;93908.00;;;;7390095;19;20236;-87
2023/08/26 11:07:51;;;;;;;5.78;2.55;;;;;19.40;93903.00;;;;7390363;19;20144;-86
2023/08/26 11:10:42;;;;;;;7.60;2.50;;;;;19.20;93913.00;;;;7393791;19;20189;-86
2023/08/26 11:13:32;;;;;;;4.63;2.10;;;;;19.20;93905.00;;;;7393734;19;20675;-86
2023/08/26 11:16:00;;;;;;;4.95;2.92;;;;;19.10;93898.00;;;;7389099;19;20136;-84
2023/08/26 11:18:34;;;;;;;4.40;2.75;;;;;18.90;93910.00;;;;7390358;19;20124;-85
2023/08/26 11:21:07;;;;;;;4.57;2.80;;;;;18.70;93927.00;;;;7391816;19;20137;-86
2023/08/26 11:23:46;;;;;;;3.70;2.53;;;;;18.40;93924.00;;;;7392062;19;20149;-84
2023/08/26 11:26:20;;;;;;;4.78;2.90;;;;;18.30;93915.00;;;;7392889;19;20568;-88
2023/08/26 11:28:58;;;;;;;8.07;2.65;;;;;18.10;93919.00;;;;7393422;19;20680;-86
2023/08/26 11:31:32;;;;;;;4.90;2.75;;;;;17.90;93930.00;;;;7388044;19;20163;-85
2023/08/26 11:34:00;;;;;;;7.15;2.90;;;;;17.60;93935.00;;;;7391559;19;20143;-85
2023/08/26 11:36:35;;;;;;;8.13;2.80;;;;;17.50;93927.00;;;;7390945;19;20171;-87
2023/08/26 11:39:03;;;;;;;4.70;2.42;;;;;17.40;93933.00;;;;7388611;19;20163;-86
2023/08/26 11:41:37;;;;;;;4.68;2.63;;;;;17.10;93935.00;;;;7390997;19;20547;-89
2023/08/26 11:44:14;;;;;;;10.63;2.88;;;;;17.10;93936.00;;;;7389865;19;20730;-85
2023/08/26 11:46:49;;;;;;;6.43;2.38;;;;;17.10;93935.00;;;;7388169;19;20145;-87
2023/08/26 11:49:18;;;;;;;4.43;2.28;;;;;16.80;93952.00;;;;7388236;19;20157;-86
2023/08/26 11:51:52;;;;;;;3.55;2.10;;;;;16.70;93947.00;;;;7387377;19;20136;-87
2023/08/26 11:54:27;;;;;;;3.72;2.20;;;;;16.50;93943.00;;;;7391372;19;20674;-87
2023/08/26 11:57:01;;;;;;;2.28;1.75;;;;;16.60;93934.00;;;;7388394;19;20161;-86
2023/08/26 11:59:39;;;;;;;3.20;2.42;;;;;16.70;93940.00;;;;7384133;19;20171;-88
2023/08/26 12:02:24;;;;;;;2.28;2.08;;;;;16.50;93944.00;;;;7385810;19;20184;-87
2023/08/26 12:04:59;;;;;;;6.28;2.25;;;;;16.70;93936.00;;;;7385415;19;20160;-88
2023/08/26 12:07:48;;;;;;;5.57;2.38;;;;;16.60;93960.00;;;;7388069;19;20144;-88
2023/08/26 12:10:18;;;;;;;7.13;2.30;;;;;16.70;93959.00;;;;7388958;19;20157;-88
2023/08/26 12:13:04;;;;;;;4.38;2.10;;;;;16.40;93966.00;;;;7389438;19;20589;-88
2023/08/26 12:15:32;;;;;;;10.48;2.20;;;;;16.40;93957.00;;;;7389487;19;20141;-87
2023/08/26 12:18:05;;;;;;;3.20;2.05;;;;;16.20;93954.00;;;;7390150;19;20141;-88
2023/08/26 12:20:34;;;;;;;5.40;2.10;;;;;16.20;93961.00;;;;7388345;19;20615;-85
2023/08/26 12:23:06;;;;;;;5.28;2.28;;;;;15.80;93956.00;;;;7386912;19;20152;-87
2023/08/26 12:25:41;;;;;;;4.05;2.10;;;;;16.00;93948.00;;;;7388367;19;20603;-85
2023/08/26 12:28:18;;;;;;;3.63;2.35;;;;;15.90;93949.00;;;;7391984;19;20169;-88
2023/08/26 12:30:53;;;;;;;4.13;2.50;;;;;16.00;93951.00;;;;7391666;19;20152;-88
2023/08/26 12:33:21;;;;;;;3.80;2.28;;;;;16.00;93953.00;;;;7391961;19;20156;-87
2023/08/26 12:35:56;;;;;;;5.47;2.78;;;;;16.00;93952.00;;;;7393279;19;20152;-86
2023/08/26 12:38:24;;;;;;;2.35;2.13;;;;;15.80;93939.00;;;;7392169;19;20149;-87
2023/08/26 12:40:51;;;;;;;4.45;2.15;;;;;16.00;93934.00;;;;7392186;19;20651;-87
2023/08/26 12:43:27;;;;;;;4.10;2.38;;;;;16.00;93940.00;;;;7390612;19;20174;-88